KUNV/SCE METAR and TAF weather

Enter ICAO airport designator
Station Type Date Time Source
KUNV METAR 2021/09/28 15:53 UTC NOAA

KUNV 281553Z 26007KT 6SM BR SCT010 OVC015 18/18 A2989


Station Type Date Time Source
KUNV Decoded METAR 2021/09/28 15:53 UTC NOAA

State College, University Park Airport, PA, United States (KUNV) 40-51N 077-51W
Sep 28, 2021 - 11:53 AM EDT / 2021.09.28 1553 UTC
Wind: from the W (260 degrees) at 8 MPH (7 KT):0
Visibility: 6 mile(s):0
Sky conditions: overcast
Weather: mist
Temperature: 64 F (18 C)
Dew Point: 64 F (18 C)
Relative Humidity: 100%
Pressure (altimeter): 29.89 in. Hg (1012 hPa)
ob: KUNV 281553Z 26007KT 6SM BR SCT010 OVC015 18/18 A2989
cycle: 16

Station Type Date Time Source
KUNV TAF 2021/09/28 15:33 UTC NOAA

TAF
AMD KUNV 281430Z 2815/2912 23007KT P6SM VCSH OVC025
FM281600 28010G15KT P6SM -SHRA BKN035
FM282000 32007KT P6SM SCT040
FM290300 34004KT P6SM FEW050

Example: see airport list